Shindler, South Dakota
Current Conditions -  °F | °C
As of 6:56 PM on Tuesday 21 Oct 2014 (Local Time) from KFSD Reporting Station
Few Clouds Few Clouds  
Wind Chill: 66°   Ceiling: Unl
Heat Index: 66°   Visibility: 10mi
Dew Point: 43°   Wind: 12mph
Humidity: 43%   Direction: 150°SSE
Pressure: 29.97"   Gusts: NA
Location:  43.5199°N, 96.7933°W
Report Text: KFSD 212356Z 15010KT 10SM FEW250 19/06 A2997 RMK AO2 SLP152 T01890061 10228 20189 55002
Loading
Personal Weather Stations






























Interactive Weather Map
Tropical Storm Tracking
New forecast layout! Learn more

10-Day Weather Forecast

Advertisements
Track Severe Weather on mobile